Time;durP1;ratioP1;P1;durP2;ratioP2;P2;SDS_P1;SDS_P2;PMS_P1;PMS_P2;Temp;Humidity;BMP_temperature;BMP_pressure;BME280_temperature;BME280_humidity;BME280_pressure;Samples;Min_cycle;Max_cycle;Signal;HPM_P1;HPM_P2
2022/12/12 00:00:18;;;;;;;38.63;18.93;;;;;;;-145.18;100.00;46656.50;5010291;28;20030;-74
2022/12/12 00:02:43;;;;;;;34.93;18.17;;;;;;;-145.18;100.00;46656.50;5009847;28;20417;-74
2022/12/12 00:05:13;;;;;;;38.53;19.50;;;;;;;-145.18;100.00;46662.34;5009722;28;20073;-74
2022/12/12 00:07:38;;;;;;;34.75;19.20;;;;;;;-145.18;100.00;46666.25;5009228;28;20101;-74
2022/12/12 00:10:04;;;;;;;42.30;20.60;;;;;;;-145.18;100.00;46666.25;5009993;28;20040;-74
2022/12/12 00:12:29;;;;;;;39.97;20.30;;;;;;;-145.18;100.00;46664.31;5012556;28;20057;-74
2022/12/12 00:14:55;;;;;;;34.87;18.90;;;;;;;-145.18;100.00;46670.16;5013608;28;20064;-75
2022/12/12 00:17:20;;;;;;;32.67;17.50;;;;;;;-145.18;100.00;46670.16;5013808;28;20433;-75
2022/12/12 00:19:46;;;;;;;33.57;18.00;;;;;;;-145.18;100.00;46676.03;5013607;28;20038;-75
2022/12/12 00:22:12;;;;;;;32.47;18.92;;;;;;;-145.18;100.00;46676.03;5013462;28;20514;-75
2022/12/12 00:24:37;;;;;;;37.73;18.40;;;;;;;-145.18;100.00;46679.94;5013712;28;20072;-75
2022/12/12 00:27:02;;;;;;;34.77;18.20;;;;;;;-145.18;100.00;46687.75;5012805;28;20068;-75
2022/12/12 00:29:28;;;;;;;36.57;18.13;;;;;;;-145.18;100.00;46695.56;5013768;28;20033;-75
2022/12/12 00:31:53;;;;;;;36.37;18.17;;;;;;;-145.18;100.00;46693.59;5013322;28;20072;-75
2022/12/12 00:34:18;;;;;;;38.50;20.23;;;;;;;-145.18;100.00;46701.41;5013425;28;20089;-74
2022/12/12 00:36:44;;;;;;;35.03;18.30;;;;;;;-145.18;100.00;46707.28;5013334;28;20120;-74
2022/12/12 00:39:09;;;;;;;35.00;18.90;;;;;;;-145.18;100.00;46709.22;5012981;28;20061;-73
2022/12/12 00:41:36;;;;;;;29.77;17.87;;;;;;;-145.18;100.00;46711.19;4995758;28;20034;-73
2022/12/12 00:44:02;;;;;;;35.78;18.50;;;;;;;-145.18;100.00;46709.22;4995567;28;20418;-73
2022/12/12 00:46:27;;;;;;;37.90;20.60;;;;;;;-145.18;100.00;46711.19;5012832;28;20041;-72
2022/12/12 00:48:55;;;;;;;35.53;19.37;;;;;;;-145.18;100.00;46717.03;5013086;28;20117;-72
2022/12/12 00:51:23;;;;;;;35.28;19.50;;;;;;;-145.18;100.00;46726.81;5013325;28;20057;-72
2022/12/12 00:53:49;;;;;;;41.40;20.35;;;;;;;-145.18;100.00;46715.09;5013332;28;20510;-71
2022/12/12 00:56:17;;;;;;;44.33;20.80;;;;;;;-145.18;100.00;46724.84;5012784;28;20056;-71
2022/12/12 00:58:42;;;;;;;43.05;21.02;;;;;;;-145.18;100.00;46728.75;5012849;28;20038;-71
2022/12/12 01:01:11;;;;;;;39.00;21.60;;;;;;;-145.18;100.00;46726.81;5012468;28;20091;-70
2022/12/12 01:03:38;;;;;;;45.10;21.73;;;;;;;-145.18;100.00;46728.75;4995255;28;20484;-70
2022/12/12 01:06:05;;;;;;;42.30;21.30;;;;;;;-145.18;100.00;46734.63;5012179;28;20041;-70
2022/12/12 01:08:30;;;;;;;42.85;22.17;;;;;;;-145.18;100.00;46736.56;5012880;28;20129;-69
2022/12/12 01:10:56;;;;;;;44.67;21.23;;;;;;;-145.18;100.00;46738.53;5012394;28;20516;-69
2022/12/12 01:13:22;;;;;;;44.60;21.07;;;;;;;-145.18;100.00;46742.44;5011809;28;20096;-69
2022/12/12 01:15:47;;;;;;;44.60;22.33;;;;;;;-145.18;100.00;46740.47;5011735;28;20084;-69
2022/12/12 01:18:13;;;;;;;40.37;20.60;;;;;;;-145.18;100.00;46740.47;5011068;28;20054;-69
2022/12/12 01:20:40;;;;;;;40.27;20.77;;;;;;;-145.18;100.00;46744.38;5011200;28;20064;-69
2022/12/12 01:23:05;;;;;;;40.50;21.58;;;;;;;-145.18;100.00;46740.47;5010425;28;20487;-70
2022/12/12 01:25:30;;;;;;;44.93;20.80;;;;;;;-145.18;100.00;46740.47;5011765;28;20044;-69
2022/12/12 01:27:56;;;;;;;42.87;21.03;;;;;;;-145.18;100.00;46742.44;5011169;28;20038;-69
2022/12/12 01:30:21;;;;;;;42.40;20.67;;;;;;;-145.18;100.00;46742.44;5011513;28;20088;-69
2022/12/12 01:32:47;;;;;;;43.40;21.73;;;;;;;-145.18;100.00;46736.56;5010686;28;20061;-69
2022/12/12 01:35:13;;;;;;;45.03;21.45;;;;;;;-145.18;100.00;46742.44;5011494;28;20033;-69
2022/12/12 01:37:39;;;;;;;46.60;22.20;;;;;;;-145.18;100.00;46742.44;5011277;28;20037;-69
2022/12/12 01:40:08;;;;;;;47.13;21.63;;;;;;;-145.18;100.00;46736.56;5010552;28;20141;-70
2022/12/12 01:42:33;;;;;;;41.72;21.30;;;;;;;-145.18;100.00;46738.53;5010712;28;20026;-70
2022/12/12 01:44:59;;;;;;;42.87;20.73;;;;;;;-145.18;100.00;46742.44;5010919;28;20076;-70
2022/12/12 01:47:25;;;;;;;44.40;21.77;;;;;;;-145.18;100.00;46736.56;5010891;28;20092;-70
2022/12/12 01:49:58;;;;;;;39.78;19.77;;;;;;;-145.18;100.00;46740.47;5010870;28;20113;-70
2022/12/12 01:52:27;;;;;;;45.72;22.02;;;;;;;-145.18;100.00;46734.63;5010816;28;20092;-70
2022/12/12 01:54:57;;;;;;;36.58;20.50;;;;;;;-145.18;100.00;46734.63;5008816;28;20051;-70
2022/12/12 01:57:31;;;;;;;43.53;20.83;;;;;;;-145.18;100.00;46732.66;5010524;28;20372;-70
2022/12/12 01:59:59;;;;;;;45.63;20.23;;;;;;;-145.18;100.00;46734.63;5010857;28;20072;-70
2022/12/12 02:02:26;;;;;;;43.95;21.00;;;;;;;-145.18;100.00;46736.56;5010324;28;20072;-70
2022/12/12 02:04:51;;;;;;;43.72;20.42;;;;;;;-145.18;100.00;46734.63;5010634;28;20387;-70
2022/12/12 02:07:17;;;;;;;46.43;21.70;;;;;;;-145.18;100.00;46728.75;4992713;28;20073;-70
2022/12/12 02:09:43;;;;;;;48.35;21.60;;;;;;;-145.18;100.00;46734.63;5010279;28;20084;-70
2022/12/12 02:12:12;;;;;;;43.03;21.23;;;;;;;-145.18;100.00;46734.63;5010304;28;20100;-70
2022/12/12 02:14:42;;;;;;;43.05;21.73;;;;;;;-145.18;100.00;46736.56;5010558;28;20041;-70
2022/12/12 02:17:29;;;;;;;43.10;21.30;;;;;;;-145.18;100.00;46734.63;5009754;28;20038;-71
2022/12/12 02:20:03;;;;;;;46.05;20.85;;;;;;;-145.18;100.00;46736.56;5010376;28;20368;-70
2022/12/12 02:22:37;;;;;;;45.85;21.20;;;;;;;-145.18;100.00;46728.75;5010130;28;20036;-71
2022/12/12 02:25:05;;;;;;;47.58;21.88;;;;;;;-145.18;100.00;46728.75;5010150;28;20026;-71
2022/12/12 02:28:01;;;;;;;45.95;21.00;;;;;;;-145.18;100.00;46726.81;5009915;28;20113;-71
2022/12/12 02:30:44;;;;;;;41.13;17.38;;;;;;;-145.18;100.00;46724.84;4992451;28;20120;-71
2022/12/12 02:33:25;;;;;;;46.53;21.13;;;;;;;-145.18;100.00;46726.81;5009693;28;20442;-71
2022/12/12 02:36:20;;;;;;;45.20;20.30;;;;;;;-145.18;100.00;46732.66;5009518;28;20063;-71
2022/12/12 02:38:59;;;;;;;45.30;20.08;;;;;;;-145.18;100.00;46724.84;5009882;28;20442;-71
2022/12/12 02:41:31;;;;;;;47.40;21.73;;;;;;;-145.18;100.00;46720.94;5008743;28;20065;-71
2022/12/12 02:44:20;;;;;;;41.63;20.25;;;;;;;-145.18;100.00;46726.81;5009919;28;20030;-71
2022/12/12 02:47:11;;;;;;;46.50;20.55;;;;;;;-145.18;100.00;46728.75;5009568;28;20166;-71
2022/12/12 02:49:51;;;;;;;40.72;19.13;;;;;;;-145.18;100.00;46724.84;5009705;28;20042;-71
2022/12/12 02:52:17;;;;;;;43.05;19.33;;;;;;;-145.18;100.00;46724.84;5009577;28;20639;-71
2022/12/12 02:54:43;;;;;;;44.00;20.70;;;;;;;-145.18;100.00;46720.94;5009772;28;20041;-71
2022/12/12 02:57:14;;;;;;;46.03;19.73;;;;;;;-145.18;100.00;46726.81;5009244;28;20394;-71
2022/12/12 02:59:44;;;;;;;45.58;20.50;;;;;;;-145.18;100.00;46724.84;5009462;28;20037;-72
2022/12/12 03:02:26;;;;;;;46.20;20.77;;;;;;;-145.18;100.00;46726.81;5070581;23;20069;-73
2022/12/12 03:08:00;;;;;;;44.25;20.20;;;;;;;-145.18;100.00;46726.81;5029781;28;20056;-73
2022/12/12 03:10:55;;;;;;;43.65;21.45;;;;;;;-145.18;100.00;46732.66;5030399;28;20772;-73
2022/12/12 03:13:29;;;;;;;44.67;20.67;;;;;;;-145.18;100.00;46732.66;5030079;28;20037;-73
2022/12/12 03:16:08;;;;;;;45.65;20.17;;;;;;;-145.18;100.00;46742.44;5026005;28;20032;-73
2022/12/12 03:18:57;;;;;;;49.65;21.10;;;;;;;-145.18;100.00;46738.53;5029811;28;20084;-73
2022/12/12 03:21:23;;;;;;;42.85;19.75;;;;;;;-145.18;100.00;46734.63;5030397;28;20525;-73
2022/12/12 03:23:53;;;;;;;49.63;20.50;;;;;;;-145.18;100.00;46736.56;5029840;28;20171;-73
2022/12/12 03:26:26;;;;;;;61.25;21.13;;;;;;;-145.18;100.00;46740.47;5018292;28;20024;-72
2022/12/12 03:29:00;;;;;;;50.00;21.33;;;;;;;-145.18;100.00;46732.66;5029803;28;20033;-73
2022/12/12 03:31:31;;;;;;;39.97;20.38;;;;;;;-145.18;100.00;46734.63;5030411;28;20071;-73
2022/12/12 03:34:01;;;;;;;47.17;21.10;;;;;;;-145.18;100.00;46734.63;5029863;28;20033;-73
2022/12/12 03:36:50;;;;;;;48.47;19.98;;;;;;;-145.18;100.00;46736.56;5030153;28;20026;-73
2022/12/12 03:39:32;;;;;;;53.13;21.63;;;;;;;-145.18;100.00;46742.44;5030172;28;20029;-73
2022/12/12 03:42:29;;;;;;;45.08;20.52;;;;;;;-145.18;100.00;46738.53;5029940;28;20141;-73
2022/12/12 03:45:03;;;;;;;52.80;20.95;;;;;;;-145.18;100.00;46738.53;5035513;28;20481;-73
2022/12/12 03:47:36;;;;;;;46.90;19.88;;;;;;;-145.18;100.00;46736.56;5045096;28;20029;-73
2022/12/12 03:50:08;;;;;;;46.97;20.60;;;;;;;-145.18;100.00;46742.44;5034441;28;20029;-73
2022/12/12 03:52:42;;;;;;;42.15;19.10;;;;;;;-145.18;100.00;46738.53;5050808;28;20108;-74
2022/12/12 03:55:15;;;;;;;46.80;21.17;;;;;;;-145.18;100.00;46736.56;5054037;28;20029;-73
2022/12/12 03:57:51;;;;;;;46.00;20.00;;;;;;;-145.18;100.00;46738.53;5053619;28;20475;-73
2022/12/12 04:00:17;;;;;;;48.45;19.90;;;;;;;-145.18;100.00;46736.56;5054028;28;20056;-73
2022/12/12 04:03:14;;;;;;;49.13;21.17;;;;;;;-145.18;100.00;46736.56;5052415;28;20437;-73
2022/12/12 04:12:57;;;;;;;46.65;21.08;;;;;;;-145.18;100.00;46734.63;5033769;28;20393;-73
2022/12/12 04:14:27;;;;;;;40.67;19.08;;;;;;;-145.18;100.00;46738.53;5053755;28;20140;-73
2022/12/12 04:16:59;;;;;;;49.22;20.88;;;;;;;-145.18;100.00;46736.56;5036949;28;20021;-73
2022/12/12 04:26:37;;;;;;;48.30;20.55;;;;;;;-145.18;100.00;46738.53;5033572;28;20041;-73
2022/12/12 04:28:21;;;;;;;51.80;20.92;;;;;;;-145.18;100.00;46736.56;5041912;28;20481;-72
2022/12/12 04:30:47;;;;;;;42.47;19.13;;;;;;;-145.18;100.00;46734.63;5053255;28;20041;-73
2022/12/12 04:33:16;;;;;;;45.27;20.97;;;;;;;-145.18;100.00;46734.63;5052653;28;20040;-73
2022/12/12 04:35:48;;;;;;;41.25;19.55;;;;;;;-145.18;100.00;46734.63;5053141;28;20073;-72
2022/12/12 04:38:18;;;;;;;44.67;19.40;;;;;;;-145.18;100.00;46738.53;5053018;28;20053;-73
2022/12/12 04:40:47;;;;;;;50.70;20.05;;;;;;;-145.18;100.00;46732.66;5042368;28;20021;-73
2022/12/12 04:43:20;;;;;;;48.40;20.77;;;;;;;-145.18;100.00;46732.66;5032986;28;20473;-72
2022/12/12 04:45:50;;;;;;;42.70;18.92;;;;;;;-145.18;100.00;46736.56;5033241;28;20034;-72
2022/12/12 04:48:19;;;;;;;46.67;19.70;;;;;;;-145.18;100.00;46732.66;5032784;28;20025;-72
2022/12/12 04:50:48;;;;;;;39.95;19.40;;;;;;;-145.18;100.00;46736.56;5033116;28;20025;-72
2022/12/12 04:53:17;;;;;;;42.05;19.55;;;;;;;-145.18;100.00;46728.75;5044933;28;20025;-72
2022/12/12 04:55:47;;;;;;;40.90;19.55;;;;;;;-145.18;100.00;46724.84;5052702;28;20047;-72
2022/12/12 04:58:13;;;;;;;47.50;19.55;;;;;;;-145.18;100.00;46713.13;5051690;28;20040;-72
2022/12/12 05:00:50;;;;;;;43.15;20.25;;;;;;;-145.18;100.00;46711.19;5050710;28;20025;-72
2022/12/12 05:03:31;;;;;;;51.63;22.30;;;;;;;-145.18;100.00;46707.28;5035191;28;20049;-72
2022/12/12 05:06:00;;;;;;;42.80;19.73;;;;;;;-145.18;100.00;46711.19;5033021;28;20495;-73
2022/12/12 05:08:37;;;;;;;41.22;19.20;;;;;;;-145.18;100.00;46720.94;5032738;28;20029;-72
2022/12/12 05:11:05;;;;;;;46.65;20.65;;;;;;;-145.18;100.00;46707.28;5032645;28;20030;-72
2022/12/12 05:13:39;;;;;;;44.42;19.52;;;;;;;-145.18;100.00;46711.19;5041803;28;20067;-72
2022/12/12 05:16:21;;;;;;;45.45;20.52;;;;;;;-145.18;100.00;46711.19;5052659;28;20029;-72
2022/12/12 05:18:47;;;;;;;40.63;19.75;;;;;;;-145.18;100.00;46720.94;5046542;28;20099;-73
2022/12/12 05:21:13;;;;;;;44.40;19.90;;;;;;;-145.18;100.00;46709.22;5029029;28;20045;-72
2022/12/12 05:23:38;;;;;;;41.93;19.43;;;;;;;-145.18;100.00;46724.84;5033195;28;20033;-72
2022/12/12 05:26:21;;;;;;;43.63;19.40;;;;;;;-145.18;100.00;46724.84;5032383;28;20460;-73
2022/12/12 05:28:47;;;;;;;43.30;18.52;;;;;;;-145.18;100.00;46711.19;5031995;28;20057;-73
2022/12/12 05:31:12;;;;;;;45.07;19.80;;;;;;;-145.18;100.00;46717.03;5046671;28;20555;-73
2022/12/12 05:33:38;;;;;;;41.70;18.93;;;;;;;-145.18;100.00;46713.13;5051348;28;20049;-72
2022/12/12 05:36:03;;;;;;;46.20;20.13;;;;;;;-145.18;100.00;46709.22;5016911;28;20109;-72
2022/12/12 05:38:29;;;;;;;42.60;20.17;;;;;;;-145.18;100.00;46722.91;5026939;28;20068;-72
2022/12/12 05:40:54;;;;;;;43.03;19.23;;;;;;;-145.18;100.00;46720.94;5032422;28;20061;-72
2022/12/12 05:43:19;;;;;;;44.80;19.43;;;;;;;-145.18;100.00;46726.81;5032384;28;20539;-72
2022/12/12 05:45:45;;;;;;;42.90;20.60;;;;;;;-145.18;100.00;46717.03;5032191;28;20029;-72
2022/12/12 05:48:10;;;;;;;44.30;19.27;;;;;;;-145.18;100.00;46709.22;5030347;28;20033;-72
2022/12/12 05:50:36;;;;;;;47.80;20.00;;;;;;;-145.18;100.00;46709.22;5044160;28;20096;-72
2022/12/12 05:53:01;;;;;;;42.93;19.77;;;;;;;-145.18;100.00;46713.13;5051679;28;20112;-72
2022/12/12 05:55:26;;;;;;;43.30;19.40;;;;;;;-145.18;100.00;46711.19;5051870;28;20025;-72
2022/12/12 05:57:52;;;;;;;40.70;19.03;;;;;;;-145.18;100.00;46715.09;5051284;28;20536;-72
2022/12/12 06:00:18;;;;;;;44.57;19.93;;;;;;;-145.18;100.00;46707.28;5050342;28;20572;-72
2022/12/12 06:02:43;;;;;;;41.43;18.17;;;;;;;-145.18;100.00;46719.00;5051171;28;20059;-72
2022/12/12 06:05:08;;;;;;;45.50;20.27;;;;;;;-145.18;100.00;46711.19;5051439;28;20128;-72
2022/12/12 06:07:34;;;;;;;44.33;19.57;;;;;;;-145.18;100.00;46720.94;5051503;28;20063;-72
2022/12/12 06:09:59;;;;;;;41.83;19.30;;;;;;;-145.18;100.00;46713.13;5050526;28;20067;-72
2022/12/12 06:12:24;;;;;;;46.57;20.30;;;;;;;-145.18;100.00;46713.13;5051495;28;20065;-72
2022/12/12 06:14:50;;;;;;;44.67;20.67;;;;;;;-145.18;100.00;46722.91;5042716;28;20033;-72
2022/12/12 06:17:15;;;;;;;43.80;20.70;;;;;;;-145.18;100.00;46724.84;5031270;28;20065;-72
2022/12/12 06:19:41;;;;;;;45.93;20.00;;;;;;;-145.18;100.00;46726.81;5030571;28;20473;-72
2022/12/12 06:22:06;;;;;;;48.20;20.27;;;;;;;-145.18;100.00;46732.66;5030979;28;20600;-72
2022/12/12 06:24:31;;;;;;;44.30;20.37;;;;;;;-145.18;100.00;46728.75;5031004;28;20037;-72
2022/12/12 06:26:57;;;;;;;48.73;20.07;;;;;;;-145.18;100.00;46726.81;5030855;28;20033;-72
2022/12/12 06:29:22;;;;;;;47.67;20.87;;;;;;;-145.18;100.00;46726.81;5030877;28;20108;-72
2022/12/12 06:31:47;;;;;;;49.17;19.20;;;;;;;-145.18;100.00;46722.91;5030753;28;20481;-72
2022/12/12 06:34:13;;;;;;;46.67;20.00;;;;;;;-145.18;100.00;46717.03;5030980;28;20033;-72
2022/12/12 06:36:38;;;;;;;42.00;20.13;;;;;;;-145.18;100.00;46720.94;5031217;28;20424;-72
2022/12/12 06:39:04;;;;;;;47.80;19.10;;;;;;;-145.18;100.00;46720.94;5030872;28;20071;-72
2022/12/12 06:41:30;;;;;;;47.13;20.17;;;;;;;-145.18;100.00;46717.03;5031128;28;20041;-72
2022/12/12 06:43:56;;;;;;;41.63;19.67;;;;;;;-145.18;100.00;46711.19;5030852;28;20037;-71
2022/12/12 06:46:24;;;;;;;45.63;20.00;;;;;;;-145.18;100.00;46715.09;5030514;28;20518;-72
2022/12/12 06:48:51;;;;;;;42.42;18.25;;;;;;;-145.18;100.00;46707.28;5030152;28;20048;-71
2022/12/12 06:51:23;;;;;;;46.55;18.52;;;;;;;-145.18;100.00;46709.22;5030985;28;20034;-72
2022/12/12 06:53:48;;;;;;;43.83;18.42;;;;;;;-145.18;100.00;46703.38;5030394;28;20056;-72
2022/12/12 06:56:19;;;;;;;40.17;18.13;;;;;;;-145.18;100.00;46695.56;5031014;28;20033;-72
2022/12/12 06:58:46;;;;;;;45.35;19.98;;;;;;;-145.18;100.00;46693.59;5030688;28;20555;-72
2022/12/12 07:01:13;;;;;;;40.25;18.10;;;;;;;-145.18;100.00;46685.78;5030966;28;20037;-72
2022/12/12 07:03:39;;;;;;;42.47;19.77;;;;;;;-145.18;100.00;46672.13;5030258;28;20041;-72
2022/12/12 07:06:06;;;;;;;43.67;21.25;;;;;;;-145.18;100.00;46676.03;5030838;28;20440;-72
2022/12/12 07:08:33;;;;;;;45.60;18.35;;;;;;;-145.18;100.00;46677.97;5030626;28;20120;-72
2022/12/12 07:11:03;;;;;;;42.10;19.63;;;;;;;-145.18;100.00;46674.06;5030414;28;20034;-72
2022/12/12 07:13:28;;;;;;;48.22;19.73;;;;;;;-145.18;100.00;46679.94;5030523;28;20493;-72
2022/12/12 07:15:54;;;;;;;48.37;18.70;;;;;;;-145.18;100.00;46677.97;5030270;28;20045;-72
2022/12/12 07:18:20;;;;;;;46.10;20.03;;;;;;;-145.18;100.00;46674.06;5030353;28;20507;-71
2022/12/12 07:20:46;;;;;;;44.17;19.80;;;;;;;-145.18;100.00;46676.03;5030038;28;20429;-72
2022/12/12 07:23:12;;;;;;;45.90;19.67;;;;;;;-145.18;100.00;46676.03;5030117;28;20034;-72
2022/12/12 07:25:39;;;;;;;45.35;19.02;;;;;;;-145.18;100.00;46670.16;5030274;28;20034;-72
2022/12/12 07:28:05;;;;;;;43.42;19.33;;;;;;;-145.18;100.00;46668.22;5030344;28;20480;-72
2022/12/12 07:30:31;;;;;;;39.15;18.95;;;;;;;-145.18;100.00;46660.41;5030234;28;20040;-72
2022/12/12 07:32:56;;;;;;;41.40;19.17;;;;;;;-145.18;100.00;46658.44;5029805;28;20034;-72
2022/12/12 07:35:22;;;;;;;39.90;18.17;;;;;;;-145.18;100.00;46658.44;5030298;28;20029;-72
2022/12/12 07:37:48;;;;;;;40.80;18.50;;;;;;;-145.18;100.00;46660.41;5029930;28;20068;-72
2022/12/12 07:40:13;;;;;;;54.33;21.00;;;;;;;-145.18;100.00;46658.44;5012407;28;20026;-72
2022/12/12 07:42:39;;;;;;;47.10;20.60;;;;;;;-145.18;100.00;46662.34;5029796;28;20087;-72
2022/12/12 07:45:05;;;;;;;44.10;18.73;;;;;;;-145.18;100.00;46666.25;5030000;28;20151;-72
2022/12/12 07:47:30;;;;;;;41.27;18.60;;;;;;;-145.18;100.00;46642.81;5030065;28;20038;-71
2022/12/12 07:49:55;;;;;;;43.37;18.67;;;;;;;-145.18;100.00;46644.78;5025946;28;20025;-72
2022/12/12 07:52:21;;;;;;;42.97;18.87;;;;;;;-145.18;100.00;46646.72;5010630;28;20425;-72
2022/12/12 07:54:46;;;;;;;47.70;18.83;;;;;;;-145.18;100.00;46640.88;5028939;28;20112;-71
2022/12/12 07:57:12;;;;;;;44.13;18.97;;;;;;;-145.18;100.00;46646.72;5029831;28;20476;-71
2022/12/12 07:59:38;;;;;;;45.07;19.50;;;;;;;-145.18;100.00;46644.78;5029671;28;20032;-72
2022/12/12 08:02:03;;;;;;;45.57;20.80;;;;;;;-145.18;100.00;46644.78;5029686;28;20254;-72
2022/12/12 08:04:28;;;;;;;41.23;17.77;;;;;;;-145.18;100.00;46646.72;5029744;28;20080;-72
2022/12/12 08:06:56;;;;;;;40.37;19.53;;;;;;;-145.18;100.00;46644.78;5029733;28;20061;-72
2022/12/12 08:09:21;;;;;;;42.10;18.95;;;;;;;-145.18;100.00;46644.78;5029784;28;20080;-72
2022/12/12 08:11:47;;;;;;;42.73;18.80;;;;;;;-145.18;100.00;46638.91;5029589;28;20033;-71
2022/12/12 08:14:13;;;;;;;46.47;19.97;;;;;;;-145.18;100.00;46629.13;5026469;28;20124;-72
2022/12/12 08:16:38;;;;;;;43.83;18.70;;;;;;;-145.18;100.00;46623.28;5009809;28;20122;-72
2022/12/12 08:19:04;;;;;;;41.63;19.47;;;;;;;-145.18;100.00;46623.28;5009343;28;20070;-72
2022/12/12 08:21:29;;;;;;;40.63;18.47;;;;;;;-145.18;100.00;46619.38;5009907;28;20037;-72
2022/12/12 08:23:57;;;;;;;45.33;19.27;;;;;;;-145.18;100.00;46613.50;5009540;28;20149;-71
2022/12/12 08:26:22;;;;;;;41.92;18.55;;;;;;;-145.18;100.00;46652.59;5010048;28;20080;-71
2022/12/12 08:28:48;;;;;;;43.33;20.77;;;;;;;-145.18;100.00;46638.91;4991809;28;20045;-72
2022/12/12 08:31:15;;;;;;;45.60;20.00;;;;;;;-145.18;100.00;46611.56;5009916;28;20029;-71
2022/12/12 08:33:40;;;;;;;46.35;20.38;;;;;;;-145.18;100.00;46638.91;5012292;28;20041;-72
2022/12/12 08:36:17;;;;;;;44.70;19.90;;;;;;;-145.18;100.00;46597.88;5013695;28;20033;-72
2022/12/12 08:38:43;;;;;;;49.72;20.77;;;;;;;-145.18;100.00;46597.88;5013204;28;20113;-72
2022/12/12 08:41:10;;;;;;;48.67;20.20;;;;;;;-145.18;100.00;46597.88;4995786;28;20509;-72
2022/12/12 08:43:37;;;;;;;44.60;19.55;;;;;;;-145.18;100.00;46597.88;5012393;28;20552;-72
2022/12/12 08:46:04;;;;;;;40.75;19.30;;;;;;;-145.18;100.00;46599.84;5012745;28;20044;-72
2022/12/12 08:48:29;;;;;;;58.47;20.42;;;;;;;-145.18;100.00;46605.69;5013056;28;20044;-72
2022/12/12 08:50:55;;;;;;;44.27;20.43;;;;;;;-145.18;100.00;46603.75;5013152;28;20378;-72
2022/12/12 08:53:22;;;;;;;47.85;21.17;;;;;;;-145.18;100.00;46601.78;5013144;28;20033;-72
2022/12/12 08:55:47;;;;;;;46.03;19.73;;;;;;;-145.18;100.00;46599.84;5012976;28;20725;-72
2022/12/12 08:58:13;;;;;;;45.27;19.57;;;;;;;-145.18;100.00;46597.88;5012594;28;20069;-72
2022/12/12 09:00:40;;;;;;;46.60;19.33;;;;;;;-145.18;100.00;46601.78;5012581;28;20453;-72
2022/12/12 09:03:05;;;;;;;48.00;21.27;;;;;;;-145.18;100.00;46607.66;5030438;28;20382;-72
2022/12/12 09:05:31;;;;;;;45.83;18.90;;;;;;;-145.18;100.00;46603.75;5032464;28;20044;-72
2022/12/12 09:07:58;;;;;;;47.03;20.27;;;;;;;-145.18;100.00;46601.78;5032224;28;20083;-72
2022/12/12 09:10:24;;;;;;;48.08;20.75;;;;;;;-145.18;100.00;46599.84;5032480;28;20038;-72
2022/12/12 09:12:49;;;;;;;44.27;19.60;;;;;;;-145.18;100.00;46601.78;5032541;28;20037;-72
2022/12/12 09:15:15;;;;;;;43.37;19.83;;;;;;;-145.18;100.00;46609.59;5032558;28;20068;-72
2022/12/12 09:17:41;;;;;;;49.30;19.35;;;;;;;-145.18;100.00;46599.84;5032191;28;20060;-72
2022/12/12 09:20:07;;;;;;;45.10;20.03;;;;;;;-145.18;100.00;46609.59;5031953;28;20038;-72
2022/12/12 09:22:32;;;;;;;47.15;20.08;;;;;;;-145.18;100.00;46613.50;5032076;28;20029;-72
2022/12/12 09:24:59;;;;;;;46.83;19.93;;;;;;;-145.18;100.00;46601.78;5013517;28;20493;-72
2022/12/12 09:27:24;;;;;;;45.97;21.10;;;;;;;-145.18;100.00;46613.50;5032401;28;20034;-72
2022/12/12 09:29:50;;;;;;;45.57;20.47;;;;;;;-145.18;100.00;46613.50;5031881;28;20079;-72
2022/12/12 09:32:15;;;;;;;42.60;18.83;;;;;;;-145.18;100.00;46615.47;5032347;28;20076;-72
2022/12/12 09:34:40;;;;;;;48.83;19.77;;;;;;;-145.18;100.00;46615.47;5031816;28;20048;-72
2022/12/12 09:37:06;;;;;;;43.40;19.47;;;;;;;-145.18;100.00;46607.66;5032193;28;20029;-73
2022/12/12 09:39:31;;;;;;;43.07;19.57;;;;;;;-145.18;100.00;46611.56;5014157;28;20050;-74
2022/12/12 09:41:57;;;;;;;43.83;19.53;;;;;;;-145.18;100.00;46615.47;5031153;28;20033;-75
2022/12/12 09:44:24;;;;;;;43.37;18.40;;;;;;;-145.18;100.00;46617.41;5031497;28;20029;-77
2022/12/12 09:47:02;;;;;;;40.25;18.42;;;;;;;-145.18;100.00;46625.22;5031943;28;20381;-78
2022/12/12 09:49:52;;;;;;;41.13;19.08;;;;;;;-145.18;100.00;46621.31;5031736;28;20490;-77
2022/12/12 09:52:29;;;;;;;43.88;19.73;;;;;;;-145.18;100.00;46633.06;5032064;28;20430;-75
2022/12/12 09:54:54;;;;;;;43.22;18.98;;;;;;;-145.18;100.00;46627.19;5013686;28;20083;-74
2022/12/12 09:57:42;;;;;;;40.37;19.17;;;;;;;-145.18;100.00;46635.00;5031866;28;20470;-74
2022/12/12 10:00:11;;;;;;;44.17;19.80;;;;;;;-145.18;100.00;46636.94;5031445;28;20044;-74
2022/12/12 10:03:12;;;;;;;41.88;19.02;;;;;;;-145.18;100.00;46640.88;5031379;28;20095;-75
2022/12/12 10:05:52;;;;;;;41.38;19.13;;;;;;;-145.18;100.00;46640.88;5031553;28;20083;-76
2022/12/12 10:08:51;;;;;;;45.45;19.67;;;;;;;-145.18;100.00;46646.72;5031288;28;20072;-77
2022/12/12 10:14:12;;;;;;;43.97;19.30;;;;;;;-145.18;100.00;46656.50;5031490;28;20090;-80
2022/12/12 10:16:39;;;;;;;44.55;17.92;;;;;;;-145.18;100.00;46658.44;5031346;28;20466;-78
2022/12/12 10:19:16;;;;;;;41.83;19.65;;;;;;;-145.18;100.00;46658.44;5031203;28;20076;-77
2022/12/12 10:21:42;;;;;;;43.28;18.40;;;;;;;-145.18;100.00;46656.50;5031258;28;20410;-77
2022/12/12 10:24:10;;;;;;;45.63;18.57;;;;;;;-145.18;100.00;46668.22;5031015;28;20044;-77
2022/12/12 10:26:36;;;;;;;38.03;18.10;;;;;;;-145.18;100.00;46676.03;5031334;28;20026;-77
2022/12/12 10:29:10;;;;;;;38.73;17.37;;;;;;;-145.18;100.00;46679.94;5031163;28;20079;-77
2022/12/12 10:31:59;;;;;;;41.38;18.70;;;;;;;-145.18;100.00;46676.03;5031364;28;20022;-77
2022/12/12 10:34:50;;;;;;;41.05;17.08;;;;;;;-145.18;100.00;46679.94;5030206;28;20030;-78
2022/12/12 10:37:38;;;;;;;35.05;16.65;;;;;;;-145.18;100.00;46705.31;5031176;28;20108;-77
2022/12/12 10:40:32;;;;;;;39.38;17.80;;;;;;;-145.18;100.00;46707.28;5030894;28;20036;-78
2022/12/12 10:43:12;;;;;;;36.95;15.90;;;;;;;-145.18;100.00;46719.00;5030614;28;20109;-78
2022/12/12 10:45:56;;;;;;;40.33;17.65;;;;;;;-145.18;100.00;46711.19;5029941;28;20105;-78
2022/12/12 10:48:21;;;;;;;35.75;17.05;;;;;;;-145.18;100.00;46715.09;5030574;28;20047;-78
2022/12/12 10:50:50;;;;;;;36.30;16.20;;;;;;;-145.18;100.00;46724.84;5012835;28;20481;-78
2022/12/12 10:53:16;;;;;;;36.13;17.05;;;;;;;-145.18;100.00;46724.84;5030723;28;20025;-78
2022/12/12 10:55:52;;;;;;;34.13;15.63;;;;;;;-145.18;100.00;46750.25;5029979;28;20067;-78
2022/12/12 10:58:18;;;;;;;34.80;15.82;;;;;;;-145.18;100.00;46758.06;5030414;28;20108;-76
2022/12/12 11:00:47;;;;;;;35.63;15.68;;;;;;;-145.18;100.00;46785.41;5023196;28;20116;-76
2022/12/12 11:03:28;;;;;;;38.10;15.88;;;;;;;-145.18;100.00;46787.38;5010477;28;20044;-76
2022/12/12 11:05:55;;;;;;;34.05;16.92;;;;;;;-145.18;100.00;46810.81;5010694;28;20490;-76
2022/12/12 11:08:28;;;;;;;34.92;15.07;;;;;;;-145.18;100.00;46816.66;5010956;28;20033;-76
2022/12/12 11:11:02;;;;;;;33.13;15.32;;;;;;;-145.18;100.00;46842.06;5010518;28;20026;-76
2022/12/12 11:13:28;;;;;;;33.90;14.32;;;;;;;-145.18;100.00;46869.41;5010587;28;20390;-75
2022/12/12 11:15:58;;;;;;;32.60;14.63;;;;;;;-145.18;100.00;46877.22;5010892;28;20124;-75
2022/12/12 11:18:25;;;;;;;29.88;13.90;;;;;;;-145.18;100.00;46894.81;5010375;28;20033;-75
2022/12/12 11:21:04;;;;;;;29.80;14.07;;;;;;;-145.18;100.00;46904.56;5010695;28;20076;-75
2022/12/12 11:23:32;;;;;;;31.00;13.80;;;;;;;-145.18;100.00;46914.34;5010745;28;20092;-75